Terminal Aerodrome Forecast
Issued by NWS Albany, NY

Home | Current Version | Previous Version | Text Only | Print | Product List | Glossary On
Versions: 1 2 3 4 5 6 7 8 9 10 11 12 13 14 15 16 17
000
FTUS41 KALY 251917 AAA
TAFPOU
TAF AMD
KPOU 251917Z 2519/2618 11004KT P6SM -RA FEW080 SCT100 BKN120
     FM252000 24004KT P6SM BKN040
     FM252200 20008KT 3SM -TSRA BR SCT020 OVC035CB
     FM260400 00000KT 2SM BR SCT003 SCT250=

USA.gov is the U.S. government's official web portal to all federal, state and local government web resources and services.